^^
Saratoga-Weather Station Historical Data
Daily Summary for June 24, 2021 Units:  Metric    English   Both
Daily Weekly Monthly Yearly Custom
  High: Low: Average:
Temperature: 18.9 °C 15.2 °C 16.3 °C
Dew Point: 15.9 °C 13 °C 14 °C
Humidity: 89% 82% 86%
Wind Speed: 13km/h 0km/h 2.1km/h
Wind Gust: 12.9km/h - -
Wind- - SSW
Pressure: 1018.0 hPa 1016.3 hPa -
Precipitation: 0.0 mm    
Historical Graphs
 
 
Tabular Data for June 24, 2021
Time Temperature Dew Point Pressure Wind Wind Speed Wind Gust Humidity Rainfall Rate (Hourly) solar
00:01 17.1 °C 14 °C 1018.0 hPa ENE 3.2 km/h 6.4 km/h 82% 0.0 mm 0 W/m2
00:06 16.9 °C 13.8 °C 1018.0 hPa North 1.4 km/h 6.4 km/h 82% 0.0 mm 0 W/m2
00:11 16.9 °C 13.8 °C 1018.0 hPa Calm   3.2 km/h 82% 0.0 mm 0 W/m2
00:16 16.8 °C 13.7 °C 1018.0 hPa West 3.2 km/h 4.8 km/h 82% 0.0 mm 0 W/m2
00:21 16.7 °C 13.6 °C 1018.0 hPa WNW 3.2 km/h 6.4 km/h 82% 0.0 mm 0 W/m2
00:26 16.7 °C 13.6 °C 1018.0 hPa NW 7.9 km/h 8 km/h 82% 0.0 mm 0 W/m2
00:31 16.6 °C 13.7 °C 1018.0 hPa West 3.2 km/h 12.9 km/h 83% 0.0 mm 0 W/m2
00:36 16.6 °C 13.7 °C 1018.0 hPa West 4.7 km/h 4.8 km/h 83% 0.0 mm 0 W/m2
00:41 16.6 °C 13.7 °C 1018.0 hPa WNW 4.7 km/h 12.9 km/h 83% 0.0 mm 0 W/m2
00:46 16.5 °C 13.6 °C 1018.0 hPa Calm   6.4 km/h 83% 0.0 mm 0 W/m2
00:51 16.5 °C 13.6 °C 1018.0 hPa West 3.2 km/h 6.4 km/h 83% 0.0 mm 0 W/m2
00:56 16.4 °C 13.5 °C 1018.0 hPa NNW 3.2 km/h 6.4 km/h 83% 0.0 mm 0 W/m2
01:01 16.4 °C 13.5 °C 1017.6 hPa WNW 4.7 km/h 4.8 km/h 83% 0.0 mm 0 W/m2
01:06 16.5 °C 13.6 °C 1017.6 hPa WNW 1.4 km/h 6.4 km/h 83% 0.0 mm 0 W/m2
01:11 16.5 °C 13.6 °C 1017.6 hPa West 4.7 km/h 6.4 km/h 83% 0.0 mm 0 W/m2
01:16 16.5 °C 13.6 °C 1018.0 hPa NW 3.2 km/h 3.2 km/h 83% 0.0 mm 0 W/m2
01:21 16.5 °C 13.6 °C 1018.0 hPa WSW 3.2 km/h 6.4 km/h 83% 0.0 mm 0 W/m2
01:26 16.4 °C 13.5 °C 1017.6 hPa West 3.2 km/h 4.8 km/h 83% 0.0 mm 0 W/m2
01:31 16.4 °C 13.5 °C 1017.6 hPa Calm   4.8 km/h 83% 0.0 mm 0 W/m2
01:36 16.4 °C 13.5 °C 1017.6 hPa East 4.7 km/h 4.8 km/h 83% 0.0 mm 0 W/m2
01:41 16.4 °C 13.5 °C 1017.6 hPa Calm   4.8 km/h 83% 0.0 mm 0 W/m2
01:46 16.4 °C 13.7 °C 1017.6 hPa Calm   3.2 km/h 84% 0.0 mm 0 W/m2
01:51 16.4 °C 13.7 °C 1017.6 hPa NW 3.2 km/h 4.8 km/h 84% 0.0 mm 0 W/m2
01:56 16.4 °C 13.7 °C 1017.6 hPa West 3.2 km/h 6.4 km/h 84% 0.0 mm 0 W/m2
02:01 16.4 °C 13.5 °C 1017.6 hPa North 1.4 km/h 4.8 km/h 83% 0.0 mm 0 W/m2
02:06 16.4 °C 13.5 °C 1017.6 hPa North 1.4 km/h 3.2 km/h 83% 0.0 mm 0 W/m2
02:11 16.4 °C 13.5 °C 1017.6 hPa SW 1.4 km/h 3.2 km/h 83% 0.0 mm 0 W/m2
02:16 16.4 °C 13.5 °C 1017.6 hPa Calm     83% 0.0 mm 0 W/m2
02:21 16.4 °C 13.5 °C 1017.6 hPa ESE 3.2 km/h 6.4 km/h 83% 0.0 mm 0 W/m2
02:26 16.4 °C 13.7 °C 1017.6 hPa ESE 3.2 km/h 4.8 km/h 84% 0.0 mm 0 W/m2
02:31 16.3 °C 13.6 °C 1017.3 hPa ENE 1.4 km/h 6.4 km/h 84% 0.0 mm 0 W/m2
02:36 16.3 °C 13.6 °C 1017.3 hPa West 1.4 km/h 4.8 km/h 84% 0.0 mm 0 W/m2
02:41 16.3 °C 13.6 °C 1017.3 hPa Calm   3.2 km/h 84% 0.0 mm 0 W/m2
02:46 16.3 °C 13.6 °C 1017.3 hPa WNW 1.4 km/h 4.8 km/h 84% 0.0 mm 0 W/m2
02:51 16.2 °C 13.5 °C 1017.3 hPa West 3.2 km/h 6.4 km/h 84% 0.0 mm 0 W/m2
02:56 16.2 °C 13.5 °C 1017.3 hPa NNE 3.2 km/h 9.7 km/h 84% 0.0 mm 0 W/m2
03:01 16.2 °C 13.5 °C 1017.3 hPa WSW 3.2 km/h 9.7 km/h 84% 0.0 mm 0 W/m2
03:06 16.1 °C 13.4 °C 1017.3 hPa NW 1.4 km/h 8 km/h 84% 0.0 mm 0 W/m2
03:11 16.1 °C 13.4 °C 1017.3 hPa West 3.2 km/h 6.4 km/h 84% 0.0 mm 0 W/m2
03:16 16 °C 13.3 °C 1017.3 hPa Calm   4.8 km/h 84% 0.0 mm 0 W/m2
03:22 15.9 °C 13.4 °C 1017.3 hPa Calm   6.4 km/h 85% 0.0 mm 0 W/m2
03:27 15.9 °C 13.2 °C 1017.3 hPa Calm   1.6 km/h 84% 0.0 mm 0 W/m2
03:32 15.8 °C 13.3 °C 1017.3 hPa NNW 3.2 km/h 4.8 km/h 85% 0.0 mm 0 W/m2
03:37 15.8 °C 13.3 °C 1017.3 hPa NW 1.4 km/h 3.2 km/h 85% 0.0 mm 0 W/m2
03:42 15.7 °C 13.2 °C 1016.9 hPa WNW 3.2 km/h 6.4 km/h 85% 0.0 mm 0 W/m2
03:47 15.7 °C 13.2 °C 1016.9 hPa Calm   3.2 km/h 85% 0.0 mm 0 W/m2
03:52 15.6 °C 13.1 °C 1016.9 hPa ENE 3.2 km/h 8 km/h 85% 0.0 mm 0 W/m2
03:57 15.6 °C 13.3 °C 1016.9 hPa NNE 3.2 km/h 4.8 km/h 86% 0.0 mm 0 W/m2
04:02 15.5 °C 13.2 °C 1016.9 hPa Calm   8 km/h 86% 0.0 mm 0 W/m2
04:07 15.4 °C 13.1 °C 1016.9 hPa WNW 1.4 km/h 3.2 km/h 86% 0.0 mm 0 W/m2
04:12 15.4 °C 13.1 °C 1016.9 hPa Calm   6.4 km/h 86% 0.0 mm 0 W/m2
04:17 15.3 °C 13 °C 1016.9 hPa North 1.4 km/h 3.2 km/h 86% 0.0 mm 0 W/m2
04:22 15.3 °C 13 °C 1016.9 hPa WNW 4.7 km/h 4.8 km/h 86% 0.0 mm 0 W/m2
04:27 15.3 °C 13.1 °C 1016.9 hPa Calm   3.2 km/h 87% 0.0 mm 0 W/m2
04:32 15.2 °C 13 °C 1016.9 hPa South 1.4 km/h 6.4 km/h 87% 0.0 mm 0 W/m2
04:37 15.2 °C 13 °C 1016.9 hPa NNE 1.4 km/h 6.4 km/h 87% 0.0 mm 0 W/m2
04:42 15.2 °C 13 °C 1016.9 hPa West 4.7 km/h 9.7 km/h 87% 0.0 mm 0 W/m2
04:47 15.2 °C 13 °C 1016.9 hPa East 4.7 km/h 6.4 km/h 87% 0.0 mm 0 W/m2
04:52 15.3 °C 13.1 °C 1016.6 hPa NW 6.4 km/h 8 km/h 87% 0.0 mm 0 W/m2
04:57 15.3 °C 13.1 °C 1016.6 hPa West 3.2 km/h 4.8 km/h 87% 0.0 mm 0 W/m2
05:02 15.3 °C 13.1 °C 1016.6 hPa ENE 1.4 km/h 3.2 km/h 87% 0.0 mm 0 W/m2
05:07 15.3 °C 13.1 °C 1016.6 hPa NNE 3.2 km/h 8 km/h 87% 0.0 mm 0 W/m2
05:12 15.3 °C 13.1 °C 1016.6 hPa Calm   3.2 km/h 87% 0.0 mm 0 W/m2
05:17 15.3 °C 13.1 °C 1016.6 hPa Calm   3.2 km/h 87% 0.0 mm 0 W/m2
05:22 15.3 °C 13.1 °C 1016.6 hPa North 3.2 km/h 3.2 km/h 87% 0.0 mm 0 W/m2
05:27 15.3 °C 13.1 °C 1016.6 hPa WNW 1.4 km/h 3.2 km/h 87% 0.0 mm 0 W/m2
05:32 15.3 °C 13.1 °C 1016.6 hPa ESE 1.4 km/h 6.4 km/h 87% 0.0 mm 0 W/m2
05:37 15.3 °C 13.1 °C 1016.6 hPa Calm   3.2 km/h 87% 0.0 mm 0 W/m2
05:42 15.3 °C 13.1 °C 1016.6 hPa NE 1.4 km/h 4.8 km/h 87% 0.0 mm 5 W/m2
05:47 15.3 °C 13.1 °C 1016.3 hPa NE 1.4 km/h 1.6 km/h 87% 0.0 mm 5 W/m2
05:52 15.2 °C 13.2 °C 1016.6 hPa WNW 3.2 km/h 6.4 km/h 88% 0.0 mm 7 W/m2
05:57 15.2 °C 13.2 °C 1016.6 hPa Calm   4.8 km/h 88% 0.0 mm 7 W/m2
06:02 15.3 °C 13.3 °C 1016.6 hPa Calm   1.6 km/h 88% 0.0 mm 11 W/m2
06:07 15.3 °C 13.3 °C 1016.6 hPa ENE 1.4 km/h 4.8 km/h 88% 0.0 mm 16 W/m2
06:12 15.3 °C 13.3 °C 1016.6 hPa NE 7.9 km/h 8 km/h 88% 0.0 mm 21 W/m2
06:17 15.3 °C 13.3 °C 1016.6 hPa North 1.4 km/h 6.4 km/h 88% 0.0 mm 21 W/m2
06:22 15.3 °C 13.3 °C 1016.6 hPa WNW 1.4 km/h 4.8 km/h 88% 0.0 mm 18 W/m2
06:27 15.3 °C 13.3 °C 1016.6 hPa SW 1.4 km/h 4.8 km/h 88% 0.0 mm 16 W/m2
06:32 15.3 °C 13.3 °C 1016.6 hPa West 1.4 km/h 6.4 km/h 88% 0.0 mm 18 W/m2
06:37 15.3 °C 13.3 °C 1016.6 hPa WNW 3.2 km/h 4.8 km/h 88% 0.0 mm 25 W/m2
06:42 15.4 °C 13.2 °C 1016.6 hPa West 4.7 km/h 9.7 km/h 87% 0.0 mm 26 W/m2
06:47 15.4 °C 13.2 °C 1016.6 hPa North 4.7 km/h 6.4 km/h 87% 0.0 mm 28 W/m2
06:52 15.4 °C 13.2 °C 1016.6 hPa WNW 3.2 km/h 9.7 km/h 87% 0.0 mm 32 W/m2
06:57 15.5 °C 13.5 °C 1016.6 hPa NW 4.7 km/h 9.7 km/h 88% 0.0 mm 33 W/m2
07:02 15.5 °C 13.5 °C 1016.3 hPa NW 1.4 km/h 3.2 km/h 88% 0.0 mm 37 W/m2
07:07 15.6 °C 13.4 °C 1016.3 hPa NW 3.2 km/h 6.4 km/h 87% 0.0 mm 37 W/m2
07:12 15.6 °C 13.4 °C 1016.3 hPa NW 1.4 km/h 4.8 km/h 87% 0.0 mm 35 W/m2
07:17 15.6 °C 13.4 °C 1016.3 hPa SE 1.4 km/h 4.8 km/h 87% 0.0 mm 35 W/m2
07:22 15.7 °C 13.7 °C 1016.3 hPa NNW 3.2 km/h 8 km/h 88% 0.0 mm 39 W/m2
07:27 15.7 °C 13.7 °C 1016.3 hPa East 1.4 km/h 4.8 km/h 88% 0.0 mm 42 W/m2
07:32 15.6 °C 13.6 °C 1016.3 hPa NNW 4.7 km/h 6.4 km/h 88% 0.0 mm 51 W/m2
07:37 15.6 °C 13.6 °C 1016.3 hPa WNW 4.7 km/h 6.4 km/h 88% 0.0 mm 62 W/m2
07:42 15.6 °C 13.6 °C 1016.3 hPa NNW 1.4 km/h 6.4 km/h 88% 0.0 mm 67 W/m2
07:47 15.6 °C 13.8 °C 1016.3 hPa Calm   4.8 km/h 89% 0.0 mm 65 W/m2
07:52 15.6 °C 13.8 °C 1016.3 hPa Calm   6.4 km/h 89% 0.0 mm 65 W/m2
07:57 15.7 °C 13.9 °C 1016.3 hPa East 3.2 km/h 3.2 km/h 89% 0.0 mm 72 W/m2
08:02 15.7 °C 13.9 °C 1016.3 hPa Calm   6.4 km/h 89% 0.0 mm 88 W/m2
08:07 15.7 °C 13.9 °C 1016.3 hPa NE 1.4 km/h 1.6 km/h 89% 0.0 mm 90 W/m2
08:12 15.8 °C 14 °C 1016.3 hPa NNE 3.2 km/h 4.8 km/h 89% 0.0 mm 91 W/m2
08:17 15.8 °C 13.8 °C 1016.3 hPa ESE 3.2 km/h 6.4 km/h 88% 0.0 mm 113 W/m2
08:22 15.9 °C 14.1 °C 1016.3 hPa WNW 3.2 km/h 4.8 km/h 89% 0.0 mm 97 W/m2
08:27 15.9 °C 13.9 °C 1016.3 hPa NNE 1.4 km/h 4.8 km/h 88% 0.0 mm 97 W/m2
08:32 16 °C 14 °C 1016.3 hPa SSW 1.4 km/h 4.8 km/h 88% 0.0 mm 98 W/m2
08:37 16.1 °C 14.1 °C 1016.3 hPa NE 1.4 km/h 8 km/h 88% 0.0 mm 97 W/m2
08:42 16.1 °C 14.1 °C 1016.3 hPa NE 1.4 km/h 6.4 km/h 88% 0.0 mm 100 W/m2
08:47 16.1 °C 13.9 °C 1016.3 hPa North 3.2 km/h 4.8 km/h 87% 0.0 mm 105 W/m2
08:52 16.2 °C 14 °C 1016.3 hPa NNW 6.4 km/h 6.4 km/h 87% 0.0 mm 111 W/m2
08:57 16.2 °C 14 °C 1016.3 hPa NNW 13 km/h 12.9 km/h 87% 0.0 mm 113 W/m2
09:02 16.3 °C 14.1 °C 1016.3 hPa NNW 1.4 km/h 4.8 km/h 87% 0.0 mm 127 W/m2
09:07 16.4 °C 14.2 °C 1016.3 hPa East 3.2 km/h 9.7 km/h 87% 0.0 mm 134 W/m2
09:12 16.4 °C 14.2 °C 1016.3 hPa NE 3.2 km/h 8 km/h 87% 0.0 mm 158 W/m2
09:17 16.5 °C 14.3 °C 1016.3 hPa Calm   4.8 km/h 87% 0.0 mm 165 W/m2
09:22 16.6 °C 14.4 °C 1016.3 hPa ESE 6.4 km/h 6.4 km/h 87% 0.0 mm 160 W/m2
09:27 16.6 °C 14.2 °C 1016.3 hPa NNE 3.2 km/h 8 km/h 86% 0.0 mm 149 W/m2
09:32 16.7 °C 14.5 °C 1016.3 hPa WNW 1.4 km/h 6.4 km/h 87% 0.0 mm 162 W/m2
09:37 16.7 °C 14.3 °C 1016.3 hPa NW 4.7 km/h 4.8 km/h 86% 0.0 mm 160 W/m2
09:42 16.8 °C 14.4 °C 1016.6 hPa Calm   3.2 km/h 86% 0.0 mm 134 W/m2
09:47 16.8 °C 14.6 °C 1016.6 hPa Calm   3.2 km/h 87% 0.0 mm 102 W/m2
09:52 16.9 °C 14.5 °C 1016.6 hPa ESE 4.7 km/h 9.7 km/h 86% 0.0 mm 98 W/m2
09:57 16.8 °C 14.4 °C 1016.6 hPa Calm   4.8 km/h 86% 0.0 mm 118 W/m2
10:02 16.9 °C 14.5 °C 1016.6 hPa Calm   9.7 km/h 86% 0.0 mm 91 W/m2
10:07 16.9 °C 14.5 °C 1016.6 hPa WNW 3.2 km/h 6.4 km/h 86% 0.0 mm 77 W/m2
10:12 16.9 °C 14.5 °C 1016.6 hPa Calm   6.4 km/h 86% 0.0 mm 72 W/m2
10:17 16.9 °C 14.5 °C 1016.6 hPa Calm   4.8 km/h 86% 0.0 mm 60 W/m2
10:22 16.9 °C 14.5 °C 1016.6 hPa Calm   3.2 km/h 86% 0.0 mm 69 W/m2
10:27 16.9 °C 14.5 °C 1016.9 hPa Calm   1.6 km/h 86% 0.0 mm 49 W/m2
10:32 16.9 °C 14.5 °C 1016.9 hPa Calm   1.6 km/h 86% 0.0 mm 39 W/m2
10:37 16.9 °C 14.5 °C 1016.9 hPa NE 3.2 km/h 8 km/h 86% 0.0 mm 54 W/m2
10:43 17 °C 14.6 °C 1016.9 hPa NE 1.4 km/h 4.8 km/h 86% 0.0 mm 60 W/m2
10:48 17 °C 14.6 °C 1016.9 hPa NE 1.4 km/h 8 km/h 86% 0.0 mm 84 W/m2
10:53 17 °C 14.6 °C 1016.9 hPa ESE 3.2 km/h 4.8 km/h 86% 0.0 mm 91 W/m2
10:58 17.1 °C 14.9 °C 1016.9 hPa NNE 1.4 km/h 3.2 km/h 87% 0.0 mm 113 W/m2
11:03 17.2 °C 15 °C 1016.9 hPa NNE 1.4 km/h 3.2 km/h 87% 0.0 mm 111 W/m2
11:08 17.2 °C 15 °C 1017.3 hPa NE 4.7 km/h 4.8 km/h 87% 0.0 mm 88 W/m2
11:13 17.2 °C 15 °C 1016.9 hPa Calm   4.8 km/h 87% 0.0 mm 79 W/m2
11:18 17.2 °C 14.8 °C 1016.9 hPa ENE 1.4 km/h 3.2 km/h 86% 0.0 mm 72 W/m2
11:23 17.1 °C 14.9 °C 1016.9 hPa NE 1.4 km/h 9.7 km/h 87% 0.0 mm 67 W/m2
11:28 17.1 °C 14.9 °C 1016.9 hPa East 3.2 km/h 3.2 km/h 87% 0.0 mm 65 W/m2
11:33 17.1 °C 14.9 °C 1016.9 hPa SE 1.4 km/h 4.8 km/h 87% 0.0 mm 76 W/m2
11:38 17.1 °C 14.9 °C 1017.3 hPa SE 1.4 km/h 3.2 km/h 87% 0.0 mm 72 W/m2
11:43 17.1 °C 14.9 °C 1016.9 hPa Calm   4.8 km/h 87% 0.0 mm 84 W/m2
11:48 17.1 °C 14.9 °C 1016.9 hPa NW 1.4 km/h 3.2 km/h 87% 0.0 mm 104 W/m2
11:53 17.1 °C 14.9 °C 1016.9 hPa WNW 3.2 km/h 3.2 km/h 87% 0.0 mm 109 W/m2
11:58 17.1 °C 14.9 °C 1016.9 hPa NNE 3.2 km/h 3.2 km/h 87% 0.0 mm 105 W/m2
12:03 17.1 °C 14.9 °C 1016.9 hPa Calm   3.2 km/h 87% 0.0 mm 111 W/m2
12:08 17.1 °C 14.9 °C 1016.9 hPa Calm   1.6 km/h 87% 0.0 mm 123 W/m2
12:13 17.2 °C 15.2 °C 1016.9 hPa Calm   1.6 km/h 88% 0.0 mm 139 W/m2
12:18 17.2 °C 15 °C 1016.9 hPa NW 1.4 km/h 3.2 km/h 87% 0.0 mm 155 W/m2
12:23 17.3 °C 15.3 °C 1016.9 hPa Calm   3.2 km/h 88% 0.0 mm 188 W/m2
12:28 17.4 °C 15.2 °C 1017.3 hPa ENE 1.4 km/h 4.8 km/h 87% 0.0 mm 207 W/m2
12:33 17.4 °C 15.2 °C 1016.9 hPa Calm   3.2 km/h 87% 0.0 mm 232 W/m2
12:38 17.6 °C 15.4 °C 1016.9 hPa Calm   6.4 km/h 87% 0.0 mm 272 W/m2
12:43 17.7 °C 15.5 °C 1016.9 hPa West 1.4 km/h 3.2 km/h 87% 0.0 mm 306 W/m2
12:48 17.8 °C 15.6 °C 1016.9 hPa NW 1.4 km/h 6.4 km/h 87% 0.0 mm 329 W/m2
12:53 17.9 °C 15.3 °C 1016.9 hPa Calm   3.2 km/h 85% 0.0 mm 332 W/m2
12:58 18.1 °C 15.7 °C 1016.9 hPa WSW 3.2 km/h 3.2 km/h 86% 0.0 mm 332 W/m2
13:03 18.2 °C 15.6 °C 1016.9 hPa Calm   1.6 km/h 85% 0.0 mm 325 W/m2
13:08 18.3 °C 15.7 °C 1016.9 hPa West 1.4 km/h 1.6 km/h 85% 0.0 mm 292 W/m2
13:13 18.6 °C 15.8 °C 1016.9 hPa Calm   3.2 km/h 84% 0.0 mm 294 W/m2
13:18 18.7 °C 15.8 °C 1016.9 hPa NNW 4.7 km/h 4.8 km/h 83% 0.0 mm 262 W/m2
13:23 18.8 °C 15.9 °C 1016.9 hPa North 3.2 km/h 6.4 km/h 83% 0.0 mm 209 W/m2
13:28 18.8 °C 15.7 °C 1016.9 hPa Calm   1.6 km/h 82% 0.0 mm 206 W/m2
13:33 18.9 °C 15.8 °C 1016.9 hPa Calm   1.6 km/h 82% 0.0 mm 220 W/m2
13:38 18.9 °C 15.8 °C 1016.9 hPa SE 4.7 km/h 6.4 km/h 82% 0.0 mm 207 W/m2
Juneau County Weather
Compliments of Weather Underground - 2 mb